Flight Track Log - Related Links

Times and Time Zones

All times are in EDT time to prevent confusion due to time zone crossing. See the SKW5485 flight status page for this flight to view local times or setup timezone preferences in your user account.

Time Position Orientation Groundspeed Altitude Reporting Facility
EDT Latitude Longitude Course Direction KTS MPH feet Rate Location/Type
Mon 12:02:16 PM 38.6853 -104.6147 350° North 255 293 10,800  Level Denver Center
Mon 12:03:18 PM 38.6844 -104.5353 91° East 268 308 11,900 581 Climbing Denver Center
Mon 12:04:20 PM 38.7219 -104.4222 67° East 289 333 12,000 48 Climbing Denver Center
Mon 12:05:00 PM 39.3197 -104.5544 350° North  Level FlightAware Approximate
Mon 12:05:22 PM 38.7956 -104.4314 354° North 287 330 12,000  Level Denver Center
Mon 12:06:00 PM 39.4088 -104.5742 350° North  Level FlightAware Approximate
Mon 12:06:24 PM 38.8664 -104.4511 348° North 277 319 12,000  Level Denver Center
Mon 12:07:00 PM 39.4484 -104.5830 350° North  Level FlightAware Approximate
Mon 12:07:26 PM 38.9542 -104.4650 353° North 281 323 12,000  Level Denver Center
Mon 12:08:28 PM 39.0242 -104.4978 340° North 278 320 12,100  Climbing Denver Center
Mon 12:09:30 PM 39.0989 -104.5653 325° Northwest 288 331 12,000 -48 Descending Denver Center
Mon 12:10:33 PM 39.1661 -104.6289 324° Northwest 290 334 12,000 -384 Level Denver Center
Mon 12:11:35 PM 39.2375 -104.6736 334° Northwest 288 331 11,200 -484 Descending Denver Center
Mon 12:12:37 PM 39.3161 -104.7181 336° Northwest 287 330 11,000 -97 Descending Denver Center
Mon 12:13:39 PM 39.3894 -104.7583 337° Northwest 285 328 11,000  Level Denver Center
Mon 12:15:43 PM 39.5456 -104.8164 344° North 284 327 11,000  Level Denver Center
Mon 12:16:45 PM 39.6283 -104.8400 348° North 283 326 11,000  Level Denver Center
Mon 12:17:47 PM 39.7064 -104.8547 352° North 284 327 11,000  Level Denver Center
Mon 12:20:03 PM 39.8661 -104.8464 North 236 272 11,000 -60 Level Denver Center
Mon 12:21:06 PM 39.9372 -104.8328 North 237 273 10,800 -624 Descending Denver Center
Mon 12:22:08 PM 40.0017 -104.8222 North 234 269 9,700 -1,125 Descending Denver Center
Mon 12:23:00 PM 39.9524 -104.7697 141° Southeast  Level Estimated
Mon 12:23:46 PM 40.0500 -104.7500 141° Southeast 228 262 7,800  Level Denver TRACON

Login

Don't have an account? Register now (free) for customized features, flight alerts, and more!